createdAt,value
2018-05-25T00:01:28.528Z,99.90
2018-05-25T00:03:56.699Z,99.90
2018-05-25T00:06:24.847Z,99.90
2018-05-25T00:08:53.030Z,99.90
2018-05-25T00:11:21.189Z,99.90
2018-05-25T00:13:50.126Z,99.90
2018-05-25T00:16:18.287Z,99.90
2018-05-25T00:18:47.235Z,99.90
2018-05-25T00:21:16.172Z,99.90
2018-05-25T00:23:44.350Z,99.90
2018-05-25T00:26:12.502Z,99.90
2018-05-25T00:28:40.676Z,99.90
2018-05-25T00:31:08.828Z,99.90
2018-05-25T00:33:37.005Z,99.90
2018-05-25T00:36:05.156Z,99.90
2018-05-25T00:38:33.374Z,99.90
2018-05-25T00:41:01.524Z,99.90
2018-05-25T00:43:29.699Z,99.90
2018-05-25T00:45:57.857Z,99.90
2018-05-25T00:48:26.037Z,99.90
2018-05-25T00:50:54.184Z,99.90
2018-05-25T00:53:22.363Z,99.90
2018-05-25T00:55:50.510Z,99.90
2018-05-25T00:58:18.688Z,99.90
2018-05-25T01:00:46.841Z,99.90
2018-05-25T01:03:15.023Z,99.90
2018-05-25T01:05:43.172Z,99.90
2018-05-25T01:08:11.345Z,99.90
2018-05-25T01:10:39.501Z,99.90
2018-05-25T01:13:07.683Z,99.90
2018-05-25T01:15:36.604Z,99.90
2018-05-25T01:18:04.779Z,99.90
2018-05-25T01:20:32.931Z,99.90
2018-05-25T01:23:01.109Z,99.90
2018-05-25T01:25:30.030Z,99.90
2018-05-25T01:27:58.207Z,99.90
2018-05-25T01:30:26.355Z,99.90
2018-05-25T01:32:54.532Z,99.90
2018-05-25T01:35:22.683Z,99.90
2018-05-25T01:37:51.629Z,99.90
2018-05-25T01:40:19.777Z,99.90
2018-05-25T01:42:47.955Z,99.90
2018-05-25T01:45:16.124Z,99.90
2018-05-25T01:47:44.272Z,99.90
2018-05-25T01:50:13.214Z,99.90
2018-05-25T01:52:41.364Z,99.90
2018-05-25T01:55:09.541Z,99.90
2018-05-25T01:57:37.692Z,99.90
2018-05-25T02:00:05.871Z,99.90
2018-05-25T02:02:34.788Z,99.90
2018-05-25T02:05:02.970Z,99.90
2018-05-25T02:07:31.121Z,99.90
2018-05-25T02:09:59.302Z,99.90
2018-05-25T02:12:27.447Z,99.90
2018-05-25T02:14:56.390Z,99.90
2018-05-25T02:17:24.536Z,99.90
2018-05-25T02:19:52.712Z,99.90
2018-05-25T02:22:20.864Z,99.90
2018-05-25T02:24:49.050Z,99.90
2018-05-25T02:27:17.208Z,99.90
2018-05-25T02:29:45.390Z,99.90
2018-05-25T02:32:13.541Z,99.90
2018-05-25T02:34:41.725Z,99.90
2018-05-25T02:37:09.872Z,99.90
2018-05-25T02:39:38.052Z,99.90
2018-05-25T02:42:06.205Z,99.90
2018-05-25T02:44:34.383Z,99.90
2018-05-25T02:47:02.538Z,99.90
2018-05-25T02:49:30.712Z,99.90
2018-05-25T02:51:58.860Z,99.90
2018-05-25T02:54:27.040Z,99.90
2018-05-25T02:56:55.193Z,99.90
2018-05-25T02:59:24.132Z,99.90
2018-05-25T03:01:52.287Z,99.90
2018-05-25T03:04:20.464Z,99.90
2018-05-25T03:06:48.629Z,99.90
2018-05-25T03:09:16.809Z,99.90
2018-05-25T03:11:44.964Z,99.90
2018-05-25T03:14:13.137Z,99.90
2018-05-25T03:16:41.283Z,99.90
2018-05-25T03:19:09.477Z,99.90
2018-05-25T03:21:37.695Z,99.90
2018-05-25T03:24:05.890Z,99.90
2018-05-25T03:26:34.041Z,99.90
2018-05-25T03:29:02.225Z,99.90
2018-05-25T03:31:30.378Z,99.90
2018-05-25T03:33:58.556Z,99.90
2018-05-25T03:36:26.731Z,99.90
2018-05-25T03:38:54.907Z,99.90
2018-05-25T03:41:23.068Z,99.90
2018-05-25T03:43:51.260Z,99.90
2018-05-25T03:46:19.420Z,99.90
2018-05-25T03:48:47.568Z,99.90
2018-05-25T03:51:15.746Z,99.90
2018-05-25T03:53:43.909Z,99.90
2018-05-25T03:56:12.848Z,99.90
2018-05-25T03:58:52.932Z,99.90
2018-05-25T04:01:32.799Z,99.90
2018-05-25T04:04:01.806Z,99.90
2018-05-25T04:06:29.991Z,99.90
2018-05-25T04:08:58.145Z,99.90
2018-05-25T04:11:27.085Z,99.90
2018-05-25T04:13:55.233Z,99.90
2018-05-25T04:16:23.409Z,99.90
2018-05-25T04:18:51.559Z,99.90
2018-05-25T04:21:19.736Z,99.90
2018-05-25T04:23:48.650Z,99.90
2018-05-25T04:26:16.833Z,99.90
2018-05-25T04:28:44.984Z,99.90
2018-05-25T04:31:13.163Z,99.90
2018-05-25T04:33:41.320Z,99.90
2018-05-25T04:36:10.264Z,99.90
2018-05-25T04:38:38.415Z,99.90
2018-05-25T04:41:06.603Z,99.90
2018-05-25T04:43:34.772Z,99.90
2018-05-25T04:46:02.957Z,99.90
2018-05-25T04:48:31.115Z,99.90
2018-05-25T04:50:59.296Z,99.90
2018-05-25T04:53:27.440Z,99.90
2018-05-25T04:55:55.620Z,99.90
2018-05-25T04:58:23.772Z,99.90
2018-05-25T05:00:51.964Z,99.90
2018-05-25T05:03:20.123Z,99.90
2018-05-25T05:05:48.306Z,99.90
2018-05-25T05:08:16.456Z,99.90
2018-05-25T05:10:44.637Z,99.90
2018-05-25T05:13:12.796Z,99.90
2018-05-25T05:15:41.046Z,99.90
2018-05-25T05:18:09.212Z,99.90
2018-05-25T05:20:37.423Z,99.90
2018-05-25T05:23:05.597Z,99.90
2018-05-25T05:25:33.803Z,99.90
2018-05-25T05:28:01.956Z,99.90
2018-05-25T05:30:30.900Z,99.90
2018-05-25T05:32:59.048Z,99.90
2018-05-25T05:35:27.225Z,99.90
2018-05-25T05:37:55.375Z,99.90
2018-05-25T05:40:23.563Z,99.90
2018-05-25T05:42:52.483Z,99.90
2018-05-25T05:45:20.671Z,99.90
2018-05-25T05:47:48.839Z,99.90
2018-05-25T05:50:17.016Z,99.90
2018-05-25T05:52:45.168Z,99.90
2018-05-25T05:55:13.347Z,99.90
2018-05-25T05:57:41.500Z,99.90
2018-05-25T06:00:09.688Z,99.90
2018-05-25T06:02:37.841Z,99.90
2018-05-25T06:05:05.991Z,99.90
2018-05-25T06:07:34.172Z,99.90
2018-05-25T06:10:03.096Z,99.90
2018-05-25T06:12:31.277Z,99.90
2018-05-25T06:14:59.429Z,99.90
2018-05-25T06:17:27.618Z,99.90
2018-05-25T06:19:55.811Z,99.90
2018-05-25T06:22:23.998Z,99.90
2018-05-25T06:24:52.169Z,99.90
2018-05-25T06:27:20.365Z,99.90
2018-05-25T06:29:48.725Z,99.90
2018-05-25T06:32:16.918Z,99.90
2018-05-25T06:34:45.157Z,99.90
2018-05-25T06:37:13.327Z,99.70
2018-05-25T06:39:41.487Z,99.90
2018-05-25T06:42:09.777Z,99.80
2018-05-25T06:44:38.612Z,99.20
2018-05-25T06:47:07.927Z,98.50
2018-05-25T06:49:36.233Z,98.40
2018-05-25T06:52:04.896Z,98.20
2018-05-25T06:54:33.163Z,97.50
2018-05-25T06:57:01.711Z,96.70
2018-05-25T06:59:30.276Z,96.70
2018-05-25T07:01:58.521Z,96.60
2018-05-25T07:04:26.696Z,96.50
2018-05-25T07:06:54.876Z,95.40
2018-05-25T07:09:23.032Z,95.50
2018-05-25T07:11:51.980Z,95.60
2018-05-25T07:14:20.132Z,95.60
2018-05-25T07:16:48.332Z,94.30
2018-05-25T07:19:17.719Z,93.40
2018-05-25T07:21:45.956Z,93.60
2018-05-25T07:24:14.160Z,93.10
2018-05-25T07:26:42.368Z,92.90
2018-05-25T07:29:10.529Z,91.60
2018-05-25T07:31:38.722Z,92.00
2018-05-25T07:34:06.895Z,91.80
2018-05-25T07:36:35.105Z,92.10
2018-05-25T07:39:03.265Z,90.60
2018-05-25T07:41:31.501Z,91.30
2018-05-25T07:44:00.423Z,90.30
2018-05-25T07:46:28.653Z,90.20
2018-05-25T07:48:56.834Z,88.80
2018-05-25T07:51:25.053Z,89.70
2018-05-25T07:53:53.977Z,85.80
2018-05-25T07:56:22.161Z,85.90
2018-05-25T07:58:50.324Z,84.90
2018-05-25T08:01:18.858Z,83.40
2018-05-25T08:03:47.090Z,85.20
2018-05-25T08:06:15.280Z,83.80
2018-05-25T08:08:43.452Z,84.20
2018-05-25T08:11:11.686Z,82.50
2018-05-25T08:13:39.856Z,80.00
2018-05-25T08:16:08.835Z,80.90
2018-05-25T08:18:37.018Z,80.90
2018-05-25T08:21:05.233Z,79.50
2018-05-25T08:23:33.451Z,78.40
2018-05-25T08:26:01.684Z,76.70
2018-05-25T08:28:30.656Z,79.50
2018-05-25T08:30:58.837Z,79.50
2018-05-25T08:33:27.031Z,75.70
2018-05-25T08:35:55.220Z,77.40
2018-05-25T08:38:24.203Z,75.40
2018-05-25T08:40:52.372Z,76.20
2018-05-25T08:43:20.654Z,75.50
2018-05-25T08:45:48.779Z,74.00
2018-05-25T08:48:17.052Z,76.70
2018-05-25T08:50:45.999Z,74.60
2018-05-25T08:53:14.211Z,74.40
2018-05-25T08:55:42.367Z,72.50
2018-05-25T08:58:10.587Z,73.70
2018-05-25T09:00:38.758Z,72.20
2018-05-25T09:03:07.022Z,74.10
2018-05-25T09:05:35.240Z,71.10
2018-05-25T09:08:03.471Z,73.50
2018-05-25T09:10:31.643Z,73.50
2018-05-25T09:12:59.900Z,70.30
2018-05-25T09:15:28.852Z,68.90
2018-05-25T09:17:57.079Z,68.80
2018-05-25T09:20:26.037Z,69.90
2018-05-25T09:22:54.280Z,70.60
2018-05-25T09:25:22.456Z,69.80
2018-05-25T09:27:50.644Z,69.80
2018-05-25T09:30:18.856Z,70.00
2018-05-25T09:32:47.089Z,67.20
2018-05-25T09:35:15.277Z,69.50
2018-05-25T09:37:43.520Z,66.50
2018-05-25T09:40:11.702Z,64.40
2018-05-25T09:42:39.886Z,64.70
2018-05-25T09:45:08.054Z,64.30
2018-05-25T09:47:36.244Z,64.00
2018-05-25T09:50:04.456Z,63.50
2018-05-25T09:52:32.649Z,61.40
2018-05-25T09:55:01.608Z,63.50
2018-05-25T09:57:29.803Z,63.40
2018-05-25T09:59:57.966Z,62.40
2018-05-25T10:02:26.175Z,62.80
2018-05-25T10:04:54.335Z,62.90
2018-05-25T10:07:22.503Z,62.40
2018-05-25T10:09:51.467Z,63.40
2018-05-25T10:12:19.643Z,63.40
2018-05-25T10:14:47.834Z,60.30
2018-05-25T10:17:15.993Z,59.70
2018-05-25T10:19:45.691Z,58.70
2018-05-25T10:22:13.878Z,58.00
2018-05-25T10:24:42.077Z,58.80
2018-05-25T10:27:10.997Z,58.50
2018-05-25T10:29:39.188Z,58.60
2018-05-25T10:32:07.451Z,55.60
2018-05-25T10:34:35.686Z,57.70
2018-05-25T10:37:03.908Z,56.40
2018-05-25T10:39:32.148Z,54.90
2018-05-25T10:42:00.320Z,54.50
2018-05-25T10:44:28.638Z,54.40
2018-05-25T10:46:56.796Z,53.80
2018-05-25T10:49:24.998Z,54.70
2018-05-25T10:51:53.173Z,55.20
2018-05-25T10:54:21.363Z,53.30
2018-05-25T10:56:49.524Z,52.90
2018-05-25T10:59:18.792Z,53.70
2018-05-25T11:01:46.952Z,53.20
2018-05-25T11:04:15.897Z,52.50
2018-05-25T11:06:44.095Z,52.50
2018-05-25T11:09:12.302Z,53.30
2018-05-25T11:11:40.479Z,50.20
2018-05-25T11:14:08.685Z,53.50
2018-05-25T11:16:36.895Z,53.70
2018-05-25T11:19:05.098Z,54.30
2018-05-25T11:21:33.256Z,55.20
2018-05-25T11:24:01.450Z,55.10
2018-05-25T11:26:29.625Z,54.90
2018-05-25T11:28:57.817Z,56.20
2018-05-25T11:31:26.010Z,56.70
2018-05-25T11:33:54.179Z,55.70
2018-05-25T11:36:22.340Z,56.00
2018-05-25T11:38:50.531Z,56.40
2018-05-25T11:41:18.684Z,57.40
2018-05-25T11:43:46.983Z,58.80
2018-05-25T11:46:15.156Z,59.10
2018-05-25T11:48:43.343Z,57.60
2018-05-25T11:51:11.496Z,58.80
2018-05-25T11:53:39.713Z,55.70
2018-05-25T11:56:08.651Z,54.80
2018-05-25T11:58:36.899Z,54.70
2018-05-25T12:01:05.072Z,54.90
2018-05-25T12:03:33.248Z,56.50
2018-05-25T12:06:01.422Z,55.10
2018-05-25T12:08:29.620Z,54.20
2018-05-25T12:10:57.777Z,53.20
2018-05-25T12:13:25.928Z,53.10
2018-05-25T12:15:54.916Z,54.00
2018-05-25T12:18:23.836Z,53.80
2018-05-25T12:20:52.015Z,53.70
2018-05-25T12:23:20.168Z,53.60
2018-05-25T12:25:48.346Z,53.20
2018-05-25T12:28:16.497Z,53.60
2018-05-25T12:30:44.698Z,54.30
2018-05-25T12:33:12.877Z,52.10
2018-05-25T12:35:41.077Z,51.20
2018-05-25T12:38:09.265Z,50.00
2018-05-25T12:40:37.532Z,50.00
2018-05-25T12:43:05.707Z,50.60
2018-05-25T12:45:33.879Z,50.10
2018-05-25T12:48:02.033Z,49.90
2018-05-25T12:50:30.205Z,49.10
2018-05-25T12:52:58.399Z,49.30
2018-05-25T12:55:26.784Z,51.10
2018-05-25T12:57:54.938Z,49.60
2018-05-25T13:00:23.136Z,50.60
2018-05-25T13:02:51.287Z,51.70
2018-05-25T13:05:19.468Z,51.30
2018-05-25T13:07:47.655Z,52.80
2018-05-25T13:10:17.514Z,53.10
2018-05-25T13:12:46.448Z,55.20
2018-05-25T13:15:14.790Z,55.20
2018-05-25T13:17:43.704Z,55.40
2018-05-25T13:20:11.877Z,55.30
2018-05-25T13:22:40.033Z,55.40
2018-05-25T13:25:08.244Z,54.60
2018-05-25T13:27:36.436Z,53.20
2018-05-25T13:30:05.628Z,49.80
2018-05-25T13:32:33.804Z,48.30
2018-05-25T13:35:02.166Z,47.30
2018-05-25T13:37:30.353Z,46.70
2018-05-25T13:39:58.562Z,47.90
2018-05-25T13:42:27.483Z,44.80
2018-05-25T13:44:55.664Z,44.80
2018-05-25T13:47:23.822Z,44.20
2018-05-25T13:49:51.993Z,41.10
2018-05-25T13:52:20.148Z,41.80
2018-05-25T13:54:49.097Z,45.60
2018-05-25T13:57:17.270Z,45.40
2018-05-25T13:59:45.480Z,48.40
2018-05-25T14:02:13.645Z,46.30
2018-05-25T14:04:41.823Z,45.80
2018-05-25T14:07:09.985Z,45.00
2018-05-25T14:09:38.172Z,44.10
2018-05-25T14:12:06.340Z,43.20
2018-05-25T14:14:34.505Z,45.40
2018-05-25T14:17:02.687Z,44.40
2018-05-25T14:19:30.852Z,46.40
2018-05-25T14:21:59.047Z,46.40
2018-05-25T14:24:27.256Z,49.30
2018-05-25T14:26:55.433Z,51.80
2018-05-25T14:29:23.597Z,55.70
2018-05-25T14:31:51.771Z,56.60
2018-05-25T14:34:20.685Z,58.40
2018-05-25T14:36:48.861Z,58.40
2018-05-25T14:39:17.056Z,59.80
2018-05-25T14:41:45.338Z,62.60
2018-05-25T14:44:13.503Z,64.60
2018-05-25T14:46:41.688Z,64.50
2018-05-25T14:49:09.847Z,64.40
2018-05-25T14:51:38.016Z,64.20
2018-05-25T14:54:06.168Z,63.40
2018-05-25T14:56:34.965Z,62.90
2018-05-25T14:59:03.127Z,62.60
2018-05-25T15:01:31.322Z,62.60
2018-05-25T15:03:59.469Z,63.40
2018-05-25T15:06:27.643Z,61.90
2018-05-25T15:08:55.802Z,60.40
2018-05-25T15:11:24.739Z,60.60
2018-05-25T15:13:52.897Z,60.70
2018-05-25T15:16:21.084Z,60.90
2018-05-25T15:18:49.240Z,59.20
2018-05-25T15:21:17.446Z,59.60
2018-05-25T15:23:45.692Z,59.50
2018-05-25T15:26:13.864Z,58.60
2018-05-25T15:28:42.020Z,58.10
2018-05-25T15:31:10.962Z,57.30
2018-05-25T15:33:39.116Z,57.20
2018-05-25T15:36:07.295Z,57.40
2018-05-25T15:38:35.444Z,56.90
2018-05-25T15:41:03.620Z,57.30
2018-05-25T15:43:31.772Z,58.40
2018-05-25T15:45:59.954Z,60.30
2018-05-25T15:48:28.120Z,59.70
2018-05-25T15:50:57.064Z,61.30
2018-05-25T15:53:25.212Z,61.30
2018-05-25T15:55:53.396Z,62.20
2018-05-25T15:58:21.552Z,63.00
2018-05-25T16:00:49.727Z,62.20
2018-05-25T16:03:17.883Z,63.60
2018-05-25T16:05:46.065Z,63.40
2018-05-25T16:08:14.216Z,63.00
2018-05-25T16:10:42.390Z,60.30
2018-05-25T16:13:10.552Z,60.20
2018-05-25T16:15:38.700Z,59.50
2018-05-25T16:18:06.875Z,59.90
2018-05-25T16:20:35.032Z,59.00
2018-05-25T16:23:03.207Z,58.30
2018-05-25T16:25:31.368Z,58.00
2018-05-25T16:27:59.544Z,58.60
2018-05-25T16:30:27.719Z,57.70
2018-05-25T16:32:55.907Z,58.00
2018-05-25T16:35:24.057Z,58.70
2018-05-25T16:37:52.241Z,58.90
2018-05-25T16:40:20.428Z,58.30
2018-05-25T16:42:48.580Z,58.10
2018-05-25T16:45:16.763Z,58.80
2018-05-25T16:47:44.927Z,57.80
2018-05-25T16:50:13.122Z,57.90
2018-05-25T16:52:41.279Z,58.40
2018-05-25T16:55:09.465Z,59.00
2018-05-25T16:57:37.624Z,59.00
2018-05-25T17:00:05.799Z,58.60
2018-05-25T17:02:33.977Z,58.60
2018-05-25T17:05:02.170Z,58.40
2018-05-25T17:07:30.355Z,59.80
2018-05-25T17:09:58.515Z,58.10
2018-05-25T17:12:26.731Z,57.20
2018-05-25T17:14:54.896Z,57.30
2018-05-25T17:17:23.082Z,58.50
2018-05-25T17:19:51.265Z,58.90
2018-05-25T17:22:19.467Z,58.60
2018-05-25T17:24:47.654Z,59.20
2018-05-25T17:27:15.856Z,58.70
2018-05-25T17:29:44.024Z,59.10
2018-05-25T17:32:12.219Z,59.10
2018-05-25T17:34:40.400Z,58.80
2018-05-25T17:37:09.384Z,60.40
2018-05-25T17:39:37.551Z,59.90
2018-05-25T17:42:05.812Z,61.50
2018-05-25T17:44:33.923Z,62.70
2018-05-25T17:47:02.875Z,64.50
2018-05-25T17:49:31.034Z,64.30
2018-05-25T17:51:59.268Z,65.30
2018-05-25T17:54:27.440Z,66.30
2018-05-25T17:56:56.473Z,67.80
2018-05-25T17:59:24.609Z,67.70
2018-05-25T18:01:52.807Z,68.70
2018-05-25T18:04:20.962Z,71.00
2018-05-25T18:06:49.920Z,72.30
2018-05-25T18:09:18.083Z,72.30
2018-05-25T18:11:46.267Z,72.30
2018-05-25T18:14:14.424Z,72.90
2018-05-25T18:16:42.616Z,73.90
2018-05-25T18:19:10.831Z,74.70
2018-05-25T18:21:38.991Z,75.40
2018-05-25T18:24:07.955Z,77.40
2018-05-25T18:26:36.132Z,78.20
2018-05-25T18:29:04.310Z,78.30
2018-05-25T18:31:32.468Z,78.60
2018-05-25T18:34:00.685Z,79.00
2018-05-25T18:36:28.851Z,79.60
2018-05-25T18:38:57.049Z,81.50
2018-05-25T18:41:25.208Z,81.50
2018-05-25T18:43:53.419Z,82.80
2018-05-25T18:46:21.593Z,83.60
2018-05-25T18:48:49.821Z,85.00
2018-05-25T18:51:18.003Z,86.00
2018-05-25T18:53:58.609Z,88.30
2018-05-25T18:56:26.766Z,88.20
2018-05-25T18:58:54.950Z,88.90
2018-05-25T19:01:23.108Z,89.20
2018-05-25T19:03:51.292Z,90.10
2018-05-25T19:06:19.457Z,90.50
2018-05-25T19:08:47.641Z,91.10
2018-05-25T19:11:15.840Z,91.70
2018-05-25T19:13:44.063Z,92.20
2018-05-25T19:16:12.225Z,92.20
2018-05-25T19:18:41.206Z,92.20
2018-05-25T19:21:09.385Z,92.10
2018-05-25T19:23:37.607Z,92.60
2018-05-25T19:26:05.831Z,92.70
2018-05-25T19:28:34.061Z,93.10
2018-05-25T19:31:02.380Z,92.90
2018-05-25T19:33:30.584Z,93.00
2018-05-25T19:35:59.504Z,93.90
2018-05-25T19:38:27.741Z,93.80
2018-05-25T19:40:55.947Z,94.30
2018-05-25T19:43:24.146Z,94.70
2018-05-25T19:45:52.419Z,94.80
2018-05-25T19:48:20.662Z,95.30
2018-05-25T19:50:49.025Z,95.60
2018-05-25T19:53:17.306Z,95.80
2018-05-25T19:55:46.383Z,96.20
2018-05-25T19:58:14.635Z,96.20
2018-05-25T20:00:42.786Z,96.60
2018-05-25T20:03:11.017Z,97.00
2018-05-25T20:05:39.224Z,97.40
2018-05-25T20:08:07.439Z,97.60
2018-05-25T20:10:35.880Z,98.00
2018-05-25T20:13:04.091Z,98.50
2018-05-25T20:15:32.288Z,99.20
2018-05-25T20:18:00.617Z,99.00
2018-05-25T20:20:28.865Z,99.40
2018-05-25T20:22:57.836Z,99.90
2018-05-25T20:25:26.781Z,99.90
2018-05-25T20:27:54.966Z,99.90
2018-05-25T20:30:23.138Z,99.90
2018-05-25T20:32:51.348Z,99.90
2018-05-25T20:35:19.521Z,99.90
2018-05-25T20:37:47.724Z,99.90
2018-05-25T20:40:15.909Z,99.90
2018-05-25T20:42:44.065Z,99.90
2018-05-25T20:45:12.248Z,99.90
2018-05-25T20:47:40.436Z,99.90
2018-05-25T20:50:08.620Z,99.90
2018-05-25T20:52:36.772Z,99.90
2018-05-25T20:55:04.956Z,99.90
2018-05-25T20:57:33.129Z,99.90
2018-05-25T21:00:01.311Z,99.90
2018-05-25T21:02:29.473Z,99.90
2018-05-25T21:04:57.651Z,99.90
2018-05-25T21:07:25.806Z,99.90
2018-05-25T21:09:54.007Z,99.90
2018-05-25T21:12:22.214Z,99.90
2018-05-25T21:14:50.368Z,99.90
2018-05-25T21:17:18.519Z,99.90
2018-05-25T21:19:46.733Z,99.90
2018-05-25T21:22:14.906Z,99.90
2018-05-25T21:24:43.099Z,99.90
2018-05-25T21:27:11.248Z,99.90
2018-05-25T21:29:39.428Z,99.90
2018-05-25T21:32:07.593Z,99.90
2018-05-25T21:34:35.771Z,99.90
2018-05-25T21:37:03.954Z,99.90
2018-05-25T21:39:32.140Z,99.90
2018-05-25T21:42:00.292Z,99.90
2018-05-25T21:44:28.495Z,99.90
2018-05-25T21:46:56.696Z,99.90
2018-05-25T21:49:24.890Z,99.90
2018-05-25T21:51:53.073Z,99.90
2018-05-25T21:54:21.258Z,99.90
2018-05-25T21:56:49.421Z,99.90
2018-05-25T21:59:17.623Z,99.90
2018-05-25T22:01:45.775Z,99.90
2018-05-25T22:04:13.973Z,99.90
2018-05-25T22:06:42.144Z,99.90
2018-05-25T22:09:10.327Z,99.90
2018-05-25T22:11:38.489Z,99.90
2018-05-25T22:14:06.672Z,99.90
2018-05-25T22:16:34.893Z,99.90
2018-05-25T22:19:03.060Z,99.90
2018-05-25T22:21:31.211Z,99.90
2018-05-25T22:23:59.431Z,99.90
2018-05-25T22:26:27.600Z,99.90
2018-05-25T22:28:55.772Z,99.90
2018-05-25T22:31:23.959Z,99.90
2018-05-25T22:33:52.112Z,99.90
2018-05-25T22:36:20.289Z,99.90
2018-05-25T22:38:48.451Z,99.90
2018-05-25T22:41:16.628Z,99.90
2018-05-25T22:43:56.472Z,99.90
2018-05-25T22:46:36.329Z,99.90
2018-05-25T22:49:16.144Z,99.90
2018-05-25T22:51:56.236Z,99.90
2018-05-25T22:54:34.883Z,99.90
2018-05-25T22:57:03.037Z,99.90
2018-05-25T22:59:31.232Z,99.90
2018-05-25T23:01:59.386Z,99.90
2018-05-25T23:04:27.536Z,99.90
2018-05-25T23:06:55.711Z,99.90
2018-05-25T23:09:23.863Z,99.90
2018-05-25T23:11:52.051Z,99.90
2018-05-25T23:14:20.202Z,99.90
2018-05-25T23:16:48.384Z,99.90
2018-05-25T23:19:16.539Z,99.90
2018-05-25T23:21:44.712Z,99.90
2018-05-25T23:24:12.867Z,99.90
2018-05-25T23:26:41.036Z,99.90
2018-05-25T23:29:09.184Z,99.90
2018-05-25T23:31:37.357Z,99.90
2018-05-25T23:34:05.515Z,99.90
2018-05-25T23:36:33.690Z,99.90
2018-05-25T23:39:01.840Z,99.90
2018-05-25T23:41:30.016Z,99.90
2018-05-25T23:43:58.172Z,99.90
2018-05-25T23:46:26.352Z,99.90
2018-05-25T23:48:54.504Z,99.90
2018-05-25T23:51:22.675Z,99.90
2018-05-25T23:53:50.824Z,99.90
2018-05-25T23:56:19.004Z,99.90
2018-05-25T23:58:47.156Z,99.90
